Rockport, IN

10:15 AM CDT on August 28, 2015 (GMT -0500)
RMR - Owensboro | | Change Station
CLOSE
Current Station
Personal Weather Station
Location: Owensboro, KY
Elevation: 387 ft
Nearby Weather Stations

Elev 387 ft 37.83 °N, 87.02 °W | Updated 14 seconds ago

Clear
Clear
73.7 °F
Feels Like 76 °F
N
0.0
Wind Variable Wind from SSE
Gusts 0.0 mph

Today
High -- | Low -- °F
--% Chance of Precip.
Yesterday
High -- | Low -- °F
Precip. -- in
6:14 AM 7:23 PM
Waxing Gibbous, 98% visible
Pressure 30.15 in
Visibility 10.0 miles
Clouds Clear
Heat Index 76 °F
Dew Point 63 °F
Humidity 70%
Rainfall 0.00 in
Snow Depth Not available.
UV 5 out of 12
Pollen 9.70 out of 12
Air Quality Not available.
Flu Activity Not available.
METAR KOWB 281456Z 15006KT 10SM CLR 23/16 A3016 RMK AO2 51003 T02330161 SLP209
Pressure 30.15 in
Visibility 10.0 miles
Clouds Clear
Heat Index 76 °F
Dew Point 63 °F
Humidity 70%
Rainfall 0.00 in
Snow Depth Not available.
UV 5 out of 12
Pollen 9.70 out of 12
Air Quality Not available.
Flu Activity Not available.
METAR KOWB 281456Z 15006KT 10SM CLR 23/16 A3016 RMK AO2 51003 T02330161 SLP209

10-Day Weather Forecast

×

Almanac

Astronomy

Aug. 28, 2015 Rise Set
Actual Time
Civil Twilight
Nautical Twilight
Astronomical Twilight
Moon
Length of Visible Light
Length of Day
Tomorrow will be .
, % of the Moon is Illuminated

Today's Extremes

State Highs State Lows

Community

WunderPhotos

Upload Photos

1,850,393 photos uploaded!

WunderBlogs® & News

Nearby

Air Quality

  Air Quality AQ Index Pollutant
Not available.

Snow Depth

Station Depth Elevation

Earthquake Activity

City Distance Mag. Time & Date
Minimum magnitude displayed is 2.5.

Coastal Water Temperatures

Place Temperature

Stations

Nearby Weather Stations

Station Location Temp. Windchill Dew Point Humidity Wind Precip. Elev Updated Type